Time;durP1;ratioP1;P1;durP2;ratioP2;P2;SDS_P1;SDS_P2;PMS_P1;PMS_P2;Temp;Humidity;BMP_temperature;BMP_pressure;BME280_temperature;BME280_humidity;BME280_pressure;Samples;Min_cycle;Max_cycle;Signal;HPM_P1;HPM_P2
2024/04/03 00:01:14;;;;;;;8.18;1.58;;;7.60;99.90;;;-144.05;81.76;56959.28;5055092;28;20036;-80
2024/04/03 00:03:42;;;;;;;5.05;1.70;;;;;;;-144.05;83.66;56976.28;5055177;28;20054;-80
2024/04/03 00:06:08;;;;;;;5.63;1.50;;;7.90;99.90;;;-144.05;83.89;56967.78;5055085;28;20513;-80
2024/04/03 00:08:34;;;;;;;7.43;2.00;;;;;;;-144.05;84.23;56978.41;5055110;28;20082;-81
2024/04/03 00:11:00;;;;;;;4.50;1.73;;;7.50;99.90;;;-144.05;84.51;56946.53;5055259;28;20028;-80
2024/04/03 00:13:28;;;;;;;5.22;1.75;;;10.60;99.90;;;-144.05;85.29;56984.78;5073131;28;20102;-81
2024/04/03 00:15:56;;;;;;;4.57;1.80;;;;;;;-144.05;85.67;57006.00;5055187;28;20517;-81
2024/04/03 00:18:22;;;;;;;2.85;1.58;;;7.50;99.90;;;-144.05;86.53;56980.53;5054694;28;20052;-81
2024/04/03 00:20:48;;;;;;;7.50;1.90;;;;;;;-144.05;87.40;56940.16;5054927;28;20038;-81
2024/04/03 00:23:14;;;;;;;8.23;2.17;;;7.50;99.90;;;-144.05;87.30;57006.00;5072569;28;20041;-79
2024/04/03 00:25:40;;;;;;;5.82;1.95;;;7.10;99.90;;;-144.05;87.40;56980.53;5054641;28;20035;-81
2024/04/03 00:28:07;;;;;;;9.77;2.85;;;7.10;99.90;;;-144.05;88.05;56984.78;5055049;28;20025;-79
2024/04/03 00:30:37;;;;;;;6.20;2.20;;;7.20;99.90;;;-144.05;88.10;56976.28;5072831;28;20020;-81
2024/04/03 00:33:03;;;;;;;7.25;2.10;;;8.60;99.90;;;-144.05;88.75;56967.78;5072044;28;20028;-80
2024/04/03 00:35:29;;;;;;;4.25;2.00;;;;;;;-144.05;88.46;56955.03;5054156;28;20126;-82
2024/04/03 00:37:55;;;;;;;8.23;1.92;;;14.30;99.90;;;-144.05;88.45;56957.16;5072429;28;20107;-81
2024/04/03 00:40:21;;;;;;;6.50;2.00;;;;;;;-144.05;88.63;56952.91;5072123;28;20066;-79
2024/04/03 00:42:48;;;;;;;5.22;2.20;;;;;;;-144.05;90.21;56952.91;5053779;28;20059;-81
2024/04/03 00:45:13;;;;;;;10.40;2.70;;;7.30;99.90;;;-144.05;90.19;56952.91;5071851;28;20029;-79
2024/04/03 00:47:40;;;;;;;8.57;2.88;;;;;;;-144.05;90.55;56980.53;5053681;28;20494;-81
2024/04/03 00:50:06;;;;;;;8.77;2.95;;;7.20;99.90;;;-144.05;90.79;56976.28;5071812;28;20067;-80
2024/04/03 00:52:33;;;;;;;8.10;2.88;;;;;;;-144.05;90.54;56984.78;5053105;28;20064;-79
2024/04/03 00:54:59;;;;;;;10.02;3.38;;;7.30;99.90;;;-144.05;90.45;56959.28;5071973;28;20105;-80
2024/04/03 00:57:26;;;;;;;9.45;3.20;;;7.50;99.90;;;-144.05;90.47;56963.53;5076684;28;20028;-82
2024/04/03 00:59:53;;;;;;;5.82;2.90;;;7.30;99.90;;;-144.05;90.72;56974.16;5076291;28;20029;-81
2024/04/03 01:02:19;;;;;;;7.45;2.78;;;;;;;-144.05;90.80;56989.00;5056916;28;20115;-82
2024/04/03 01:04:45;;;;;;;5.65;2.60;;;;;;;-144.05;90.58;56969.91;5075101;28;20029;-78
2024/04/03 01:07:12;;;;;;;8.60;2.83;;;7.70;99.90;;;-144.05;90.12;56967.78;5054224;28;20165;-79
2024/04/03 01:09:38;;;;;;;9.10;2.90;;;;;;;-144.05;90.19;56959.28;5071179;28;20024;-79
2024/04/03 01:12:06;;;;;;;6.60;2.83;;;7.60;99.90;;;-144.05;89.88;56972.03;5053646;28;20146;-81
2024/04/03 01:14:32;;;;;;;6.60;2.58;;;;;;;-144.05;90.16;56993.25;5053219;28;20116;-81
2024/04/03 01:16:58;;;;;;;6.75;2.55;;;;;;;-144.05;90.12;56946.53;5052674;28;20052;-81
2024/04/03 01:19:24;;;;;;;8.20;3.20;;;7.20;99.90;;;-144.05;89.46;56946.53;5070591;28;20406;-80
2024/04/03 01:21:49;;;;;;;9.45;2.65;;;7.20;99.90;;;-144.05;89.06;56950.78;5052569;28;20048;-81
2024/04/03 01:24:20;;;;;;;8.82;2.13;;;;;;;-144.05;89.13;56976.28;5052666;28;20039;-81
2024/04/03 01:26:47;;;;;;;6.35;2.05;;;8.30;99.90;;;-144.05;88.92;56946.53;5056848;28;20021;-81
2024/04/03 01:29:13;;;;;;;8.20;2.17;;;;;;;-144.05;89.51;56963.53;5086015;28;20331;-82
2024/04/03 01:31:39;;;;;;;7.35;2.75;;;7.80;99.90;;;-144.05;89.84;56957.16;5072670;28;20039;-79
2024/04/03 01:34:05;;;;;;;13.05;3.33;;;7.60;99.90;;;-144.05;89.49;56963.53;5086121;28;20047;-82
2024/04/03 01:36:31;;;;;;;3.92;2.10;;;7.60;99.90;;;-144.05;89.02;56991.13;5095120;28;20027;-81
2024/04/03 01:38:57;;;;;;;5.13;2.33;;;7.40;99.90;;;-144.05;89.19;56989.00;5094469;28;20103;-82
2024/04/03 01:41:23;;;;;;;6.55;2.42;;;7.20;99.90;;;-144.05;89.03;56957.16;5094173;28;20070;-80
2024/04/03 01:43:48;;;;;;;5.47;2.05;;;8.10;99.90;;;-144.05;89.69;56984.78;5093415;28;20439;-82
2024/04/03 01:46:14;;;;;;;6.75;2.70;;;;;;;-144.05;89.54;56995.38;5076833;28;20033;-80
2024/04/03 01:48:40;;;;;;;5.93;2.55;;;7.00;99.90;;;-144.05;89.34;56976.28;5077496;28;20415;-81
2024/04/03 01:51:06;;;;;;;4.30;2.33;;;8.20;99.90;;;-144.05;89.18;56950.78;5078475;28;20039;-80
2024/04/03 01:53:32;;;;;;;4.93;2.10;;;7.90;99.90;;;-144.05;88.46;56969.91;5096091;28;20024;-81
2024/04/03 01:55:59;;;;;;;5.95;2.08;;;9.80;99.90;;;-144.05;89.32;56967.78;5095808;28;20039;-82
2024/04/03 01:58:25;;;;;;;5.75;2.40;;;9.80;99.90;;;-144.05;88.81;56961.41;5095905;28;20058;-80
2024/04/03 02:00:52;;;;;;;8.10;2.45;;;9.80;99.90;;;-144.05;88.83;56982.66;5076116;28;20028;-79
2024/04/03 02:03:20;;;;;;;6.07;2.45;;;9.80;99.90;;;-144.05;89.52;56965.66;5092295;28;20016;-83
2024/04/03 02:05:49;;;;;;;6.72;2.47;;;9.70;99.90;;;-144.05;89.51;56984.78;5080136;28;20497;-83
2024/04/03 02:08:15;;;;;;;6.00;2.63;;;8.00;99.90;;;-144.05;90.14;56969.91;5083481;28;20030;-81
2024/04/03 02:10:43;;;;;;;5.80;2.55;;;7.30;99.90;;;-144.05;90.69;56976.28;5079263;28;20104;-82
2024/04/03 02:13:09;;;;;;;6.97;2.58;;;7.10;99.90;;;-144.05;90.90;56965.66;5075708;28;20024;-82
2024/04/03 02:15:35;;;;;;;7.40;2.28;;;8.00;99.90;;;-144.05;91.24;56982.66;5092608;28;20122;-81
2024/04/03 02:18:02;;;;;;;5.50;2.70;;;;;;;-144.05;91.32;56972.03;5096177;28;20074;-82
2024/04/03 02:20:28;;;;;;;8.77;3.08;;;8.00;99.90;;;-144.05;91.11;56967.78;5079183;28;20028;-81
2024/04/03 02:22:54;;;;;;;7.03;2.42;;;;;;;-144.05;91.65;56974.16;5096348;28;20042;-84
2024/04/03 02:25:21;;;;;;;7.43;2.80;;;7.40;99.90;;;-144.05;91.20;56957.16;5072027;28;20115;-83
2024/04/03 02:27:48;;;;;;;6.13;2.40;;;;;;;-144.05;91.78;56974.16;5070235;28;20024;-79
2024/04/03 02:30:14;;;;;;;6.55;2.65;;;;;;;-144.05;91.30;56974.16;5075088;28;20542;-80
2024/04/03 02:32:40;;;;;;;6.10;2.05;;;7.90;99.90;;;-144.05;91.26;56984.78;5075188;28;20031;-82
2024/04/03 02:35:06;;;;;;;7.93;2.00;;;7.10;99.90;;;-144.05;91.87;56963.53;5093111;28;20028;-81
2024/04/03 02:37:32;;;;;;;5.43;1.77;;;7.50;99.90;;;-144.05;91.85;56955.03;5075661;28;20031;-82
2024/04/03 02:39:58;;;;;;;9.40;2.92;;;6.90;99.90;;;-144.05;91.71;56942.28;5092841;28;20028;-79
2024/04/03 02:42:24;;;;;;;6.75;2.35;;;7.60;99.90;;;-144.05;91.11;56999.63;5093083;28;20027;-83
2024/04/03 02:44:50;;;;;;;5.88;2.00;;;11.10;99.90;;;-144.05;91.27;56952.91;5092600;28;20032;-81
2024/04/03 02:47:17;;;;;;;6.13;2.38;;;9.70;99.90;;;-144.05;91.46;56999.63;5074766;28;20144;-82
2024/04/03 02:49:43;;;;;;;7.13;2.55;;;;;;;-144.05;90.97;56957.16;5093329;28;20020;-80
2024/04/03 02:52:09;;;;;;;5.43;1.80;;;7.40;99.90;;;-144.05;90.56;56946.53;5092518;28;20043;-80
2024/04/03 02:54:34;;;;;;;4.43;1.67;;;7.10;99.90;;;-144.05;90.57;56955.03;5075053;28;20028;-82
2024/04/03 02:57:00;;;;;;;5.72;1.67;;;7.70;99.90;;;-144.05;90.25;56944.41;5073836;28;20039;-81
2024/04/03 02:59:27;;;;;;;5.88;2.05;;;;;;;-144.05;90.43;56961.41;5093129;28;20067;-81
2024/04/03 03:01:53;;;;;;;9.25;2.50;;;7.70;99.90;;;-144.05;90.21;56957.16;5091835;28;20058;-82
2024/04/03 03:04:24;;;;;;;5.88;1.90;;;7.10;99.90;;;-144.05;90.16;56948.66;5067926;28;20405;-80
2024/04/03 03:06:51;;;;;;;4.60;2.08;;;7.40;99.90;;;-144.05;91.10;57012.38;5073885;28;20643;-82
2024/04/03 03:09:24;;;;;;;5.45;1.90;;;7.90;99.90;;;-144.05;91.11;56959.28;5076046;28;20515;-81
2024/04/03 03:11:50;;;;;;;8.20;2.40;;;7.80;99.90;;;-144.05;91.38;56974.16;5073709;28;20039;-80
2024/04/03 03:14:16;;;;;;;5.57;1.98;;;;;;;-144.05;91.55;56969.91;5074533;28;20020;-84
2024/04/03 03:16:42;;;;;;;4.45;2.28;;;7.40;99.90;;;-144.05;91.45;56991.13;5074250;28;20169;-80
2024/04/03 03:19:07;;;;;;;8.18;2.10;;;7.40;99.90;;;-144.05;91.41;56963.53;5092452;28;20070;-82
2024/04/03 03:21:33;;;;;;;5.57;2.20;;;7.70;99.90;;;-144.05;91.56;56950.78;5093312;28;20051;-81
2024/04/03 03:23:59;;;;;;;9.43;2.40;;;6.90;99.90;;;-144.05;91.71;56944.41;5072516;28;20062;-80
2024/04/03 03:26:25;;;;;;;5.70;1.98;;;;;;;-144.05;91.51;56963.53;5067738;28;20036;-82
2024/04/03 03:28:51;;;;;;;5.72;1.80;;;;;;;-144.05;91.22;56980.53;5072941;28;20035;-80
2024/04/03 03:31:18;;;;;;;7.28;1.90;;;7.10;99.90;;;-144.05;90.80;56961.41;5073786;28;20430;-82
2024/04/03 03:33:44;;;;;;;5.45;2.00;;;7.00;99.90;;;-144.05;90.60;56950.78;5092373;28;20504;-80
2024/04/03 03:36:10;;;;;;;7.15;1.95;;;8.80;99.90;;;-144.05;90.82;56961.41;5072395;28;20056;-83
2024/04/03 03:38:36;;;;;;;4.15;1.60;;;;;;;-144.05;91.20;56991.13;5073921;28;20028;-82
2024/04/03 03:41:05;;;;;;;5.70;2.33;;;7.70;99.90;;;-144.05;91.05;56950.78;5090957;28;20548;-83
2024/04/03 03:43:31;;;;;;;6.78;2.10;;;9.40;99.90;;;-144.05;91.35;56967.78;5093005;28;20069;-79
2024/04/03 03:45:57;;;;;;;8.38;2.20;;;7.40;99.90;;;-144.05;92.11;56982.66;5092977;28;20035;-83
2024/04/03 03:53:58;;;;;;;5.32;2.40;;;;;;;-144.05;92.50;56959.28;5091918;28;20070;-81
2024/04/03 03:56:24;;;;;;;8.02;2.63;;;7.10;99.90;;;-144.05;92.82;56957.16;5077024;28;20403;-81
2024/04/03 03:58:51;;;;;;;7.88;3.28;;;;;;;-144.05;92.70;56982.66;5073357;28;20024;-83
2024/04/03 04:01:17;;;;;;;9.52;3.08;;;7.90;99.90;;;-144.05;93.07;56952.91;5085599;28;20020;-82
2024/04/03 04:03:44;;;;;;;7.90;2.42;;;;;;;-144.05;93.50;56993.25;5092947;28;20051;-80
2024/04/03 04:06:10;;;;;;;8.32;3.38;;;;;;;-144.05;94.50;56972.03;5072088;28;20346;-81
2024/04/03 04:08:36;;;;;;;9.43;3.22;;;7.40;99.90;;;-144.05;95.18;56961.41;5073900;28;20397;-82
2024/04/03 04:11:03;;;;;;;12.20;3.67;;;;;;;-144.05;95.83;56950.78;5073154;28;20473;-82
2024/04/03 04:13:30;;;;;;;10.23;3.40;;;7.80;99.90;;;-144.05;93.37;56967.78;5092533;28;20047;-82
2024/04/03 04:16:01;;;;;;;11.77;4.55;;;7.20;99.90;;;-144.05;92.97;56972.03;5074230;28;20028;-82
2024/04/03 04:18:29;;;;;;;9.57;4.18;;;7.80;99.90;;;-144.05;93.53;56963.53;5068578;28;20016;-81
2024/04/03 04:20:56;;;;;;;10.45;4.93;;;7.40;99.90;;;-144.05;92.67;56959.28;5091322;28;20111;-83
2024/04/03 04:23:26;;;;;;;11.80;4.72;;;7.60;99.90;;;-144.05;92.62;56959.28;5084427;28;20102;-83
2024/04/03 04:26:03;;;;;;;9.15;4.40;;;7.70;99.90;;;-144.05;92.99;56995.38;5069443;28;20059;-80
2024/04/03 04:28:31;;;;;;;8.32;4.35;;;7.30;99.90;;;-144.05;92.98;56976.28;5090627;28;20107;-84
2024/04/03 04:31:04;;;;;;;13.18;4.20;;;7.50;99.90;;;-144.05;92.49;56961.41;5091990;28;20032;-83
2024/04/03 04:33:33;;;;;;;6.88;4.32;;;7.30;99.90;;;-144.05;92.53;56963.53;5093996;28;20032;-83
2024/04/03 04:36:00;;;;;;;8.00;4.53;;;7.50;99.90;;;-144.05;91.96;56955.03;5075986;28;20020;-83
2024/04/03 04:38:28;;;;;;;13.70;5.05;;;7.50;99.90;;;-144.05;92.13;56976.28;5075974;28;20043;-82
2024/04/03 04:40:59;;;;;;;10.75;5.03;;;9.40;99.90;;;-144.05;93.24;56955.03;5067319;28;20160;-78
2024/04/03 04:43:31;;;;;;;8.98;4.28;;;7.30;99.90;;;-144.05;91.86;56969.91;5081813;28;20033;-84
2024/04/03 04:46:04;;;;;;;11.07;5.05;;;7.40;99.90;;;-144.05;91.85;56948.66;5070047;28;20032;-81
2024/04/03 04:48:32;;;;;;;10.60;4.80;;;7.20;99.90;;;-144.05;90.95;56963.53;5081290;28;20047;-83
2024/04/03 04:51:02;;;;;;;12.23;4.47;;;9.40;99.90;;;-144.05;90.36;56961.41;5082792;28;20031;-80
2024/04/03 04:53:28;;;;;;;10.07;5.32;;;7.60;99.90;;;-144.05;90.28;56984.78;5087084;28;20016;-81
2024/04/03 04:56:04;;;;;;;10.13;5.72;;;9.40;99.90;;;-144.05;90.34;56963.53;5070850;28;20034;-79
2024/04/03 04:58:30;;;;;;;12.32;5.68;;;7.60;99.90;;;-144.05;90.39;56969.91;5085812;28;20040;-81
2024/04/03 05:01:08;;;;;;;9.63;5.05;;;10.80;99.90;;;-144.05;90.62;56959.28;5073157;28;20055;-81
2024/04/03 05:03:36;;;;;;;11.73;6.35;;;8.20;99.90;;;-144.05;91.21;56946.53;5070439;28;20115;-81
2024/04/03 05:06:04;;;;;;;15.25;6.65;;;11.00;99.90;;;-144.05;91.18;56991.13;5088882;28;20493;-81
2024/04/03 05:08:33;;;;;;;14.38;6.60;;;7.60;99.90;;;-144.05;91.79;56961.41;5071728;28;20035;-81
2024/04/03 05:10:59;;;;;;;13.38;7.00;;;10.60;99.90;;;-144.05;91.56;56967.78;5087798;28;20016;-80
2024/04/03 05:13:32;;;;;;;11.85;7.13;;;9.40;99.90;;;-144.05;92.17;56976.28;5073592;28;20471;-79
2024/04/03 05:16:05;;;;;;;15.38;7.63;;;7.90;99.90;;;-144.05;91.75;56984.78;5087366;28;20024;-81
2024/04/03 05:18:31;;;;;;;13.43;6.30;;;11.20;99.90;;;-144.05;91.98;56976.28;5070375;28;20031;-81
2024/04/03 05:20:57;;;;;;;14.68;6.82;;;;;;;-144.05;91.15;56972.03;5086799;28;20111;-79
2024/04/03 05:23:23;;;;;;;13.32;6.50;;;7.10;99.90;;;-144.05;91.37;56989.00;5088612;28;20031;-80
2024/04/03 05:26:04;;;;;;;16.45;6.82;;;13.70;99.90;;;-144.05;90.93;56980.53;5080850;28;20032;-80
2024/04/03 05:28:32;;;;;;;10.70;5.97;;;7.70;99.90;;;-144.05;90.68;56967.78;5083369;28;20024;-81
2024/04/03 05:31:15;;;;;;;12.30;6.10;;;9.40;99.90;;;-144.05;90.64;56978.41;5086575;28;20035;-80
2024/04/03 05:33:43;;;;;;;14.18;6.22;;;7.40;99.90;;;-144.05;90.49;56961.41;5088219;28;20024;-81
2024/04/03 05:36:10;;;;;;;13.65;6.03;;;13.80;99.90;;;-144.05;90.69;56965.66;5071182;28;20078;-79
2024/04/03 05:38:38;;;;;;;13.85;6.13;;;;;;;-144.05;90.17;56986.91;5087812;28;20031;-79
2024/04/03 05:41:05;;;;;;;10.05;5.97;;;10.80;99.90;;;-144.05;90.39;56967.78;5068031;28;20082;-81
2024/04/03 05:43:31;;;;;;;14.82;5.75;;;7.30;99.90;;;-144.05;90.27;56999.63;5072948;28;20020;-81
2024/04/03 05:45:58;;;;;;;11.38;5.07;;;;;;;-144.05;90.32;56963.53;5086204;28;20028;-80
2024/04/03 05:48:27;;;;;;;18.27;5.25;;;7.90;99.90;;;-144.05;90.57;56969.91;5087727;28;20504;-80
2024/04/03 05:51:19;;;;;;;20.02;5.88;;;7.50;99.90;;;-144.05;90.88;56993.25;5086289;28;20028;-80
2024/04/03 05:53:45;;;;;;;11.25;4.80;;;8.10;99.90;;;-144.05;90.43;56989.00;5063301;28;20032;-80
2024/04/03 05:56:10;;;;;;;11.40;4.72;;;7.30;99.90;;;-144.05;90.21;56965.66;5087330;28;20036;-81
2024/04/03 05:58:36;;;;;;;11.55;4.85;;;7.90;99.90;;;-144.05;90.04;56984.78;5069338;28;20013;-80
2024/04/03 06:01:03;;;;;;;8.52;4.30;;;7.90;99.90;;;-144.05;90.49;56952.91;5066918;28;20478;-80
2024/04/03 06:03:30;;;;;;;11.82;4.40;;;;;;;-144.05;90.27;56959.28;5087182;28;20031;-80
2024/04/03 06:05:59;;;;;;;11.07;4.57;;;7.60;99.90;;;-144.05;89.37;56972.03;5067427;28;20129;-80
2024/04/03 06:08:26;;;;;;;17.25;4.30;;;7.40;99.90;;;-144.05;89.14;56995.38;5080855;28;20485;-81
2024/04/03 06:10:53;;;;;;;9.55;4.40;;;;;;;-144.05;89.21;56989.00;5085855;28;20065;-79
2024/04/03 06:13:19;;;;;;;10.88;3.65;;;8.60;99.90;;;-144.05;89.00;56974.16;5068858;28;20032;-79
2024/04/03 06:15:46;;;;;;;7.88;3.85;;;8.10;99.90;;;-144.05;89.49;56980.53;5087185;28;20081;-79
2024/04/03 06:18:13;;;;;;;10.75;4.13;;;;;;;-144.05;89.96;56967.78;5083798;28;20055;-81
2024/04/03 06:20:39;;;;;;;7.50;3.75;;;8.00;99.90;;;-144.05;89.61;56978.41;5068759;28;20031;-81
2024/04/03 06:23:05;;;;;;;8.75;4.10;;;7.40;99.90;;;-144.05;89.68;56974.16;5066423;28;20024;-81
2024/04/03 06:25:31;;;;;;;7.68;3.85;;;14.00;99.90;;;-144.05;89.81;56978.41;5062075;28;20062;-80
2024/04/03 06:27:57;;;;;;;10.45;3.72;;;;;;;-144.05;90.01;56980.53;5084913;28;20043;-81
2024/04/03 06:30:23;;;;;;;8.55;3.40;;;;;;;-144.05;89.48;56963.53;5061729;28;20060;-80
2024/04/03 06:32:49;;;;;;;9.00;3.47;;;8.00;99.90;;;-144.05;89.77;56961.41;5088795;28;20024;-79
2024/04/03 06:35:15;;;;;;;8.40;3.25;;;7.60;99.90;;;-144.05;89.53;56972.03;5088843;28;20028;-80
2024/04/03 06:37:42;;;;;;;8.63;3.00;;;;;;;-144.05;88.87;56984.78;5072128;28;20020;-80
2024/04/03 06:40:10;;;;;;;9.00;3.03;;;14.00;99.90;;;-144.05;88.88;56982.66;5087922;28;20036;-80
2024/04/03 06:42:37;;;;;;;16.88;3.60;;;;;;;-144.05;88.35;56963.53;5089884;28;20554;-81
2024/04/03 06:45:04;;;;;;;10.18;3.13;;;7.80;99.90;;;-144.05;87.82;56972.03;5073656;28;20398;-81
2024/04/03 06:47:30;;;;;;;6.90;3.33;;;8.80;99.90;;;-144.05;87.55;56972.03;5089625;28;20554;-80
2024/04/03 06:49:57;;;;;;;10.95;4.30;;;10.60;99.90;;;-144.05;87.18;56950.78;5087898;28;20024;-80
2024/04/03 06:52:25;;;;;;;12.35;2.97;;;10.30;99.90;;;-144.05;86.91;56963.53;5071138;28;20039;-79
2024/04/03 06:54:52;;;;;;;8.10;2.80;;;7.30;99.90;;;-144.05;86.90;56980.53;5070289;28;20052;-80
2024/04/03 06:57:18;;;;;;;7.10;2.58;;;7.90;99.90;;;-144.05;86.59;56978.41;5070171;28;20119;-79
2024/04/03 06:59:44;;;;;;;6.57;2.78;;;;;;;-144.05;85.87;56955.03;5089219;28;20479;-80
2024/04/03 07:02:10;;;;;;;6.95;1.92;;;8.70;99.90;;;-144.05;85.36;56997.50;5086898;28;20024;-79
2024/04/03 07:04:36;;;;;;;6.18;2.13;;;7.40;99.90;;;-144.05;86.12;56989.00;5089171;28;20032;-80
2024/04/03 07:07:04;;;;;;;6.28;2.72;;;11.10;99.90;;;-144.05;85.05;56969.91;5087147;28;20040;-79
2024/04/03 07:09:30;;;;;;;6.75;2.20;;;;;;;-144.05;85.66;56955.03;5088680;28;20044;-80
2024/04/03 07:11:56;;;;;;;10.65;2.72;;;7.60;99.90;;;-144.05;84.92;56974.16;5068988;28;20050;-80
2024/04/03 07:14:22;;;;;;;3.80;1.80;;;13.80;99.90;;;-144.05;83.80;56963.53;5088168;28;20028;-79
2024/04/03 07:16:48;;;;;;;8.25;2.33;;;8.40;99.90;;;-144.05;83.95;56952.91;5081892;28;20538;-80
2024/04/03 07:19:14;;;;;;;5.18;1.83;;;7.40;99.90;;;-144.05;83.52;56969.91;5071665;28;20036;-80
2024/04/03 07:21:42;;;;;;;4.53;2.13;;;;;;;-144.05;83.77;56955.03;5091486;28;20028;-80
2024/04/03 07:24:09;;;;;;;7.15;1.55;;;14.00;99.90;;;-144.05;82.26;56965.66;5087115;28;20048;-79
2024/04/03 07:26:35;;;;;;;7.85;1.58;;;8.40;99.90;;;-144.05;81.79;56967.78;5086423;28;20024;-81
2024/04/03 07:29:01;;;;;;;4.53;1.30;;;;;;;-144.05;81.37;56965.66;5089043;28;20023;-82
2024/04/03 07:31:27;;;;;;;6.45;1.80;;;8.10;99.90;;;-144.05;80.87;56948.66;5085721;28;20047;-81
2024/04/03 07:33:53;;;;;;;5.32;1.58;;;;;;;-144.05;80.92;56967.78;5091175;28;20489;-81
2024/04/03 07:36:22;;;;;;;6.43;1.70;;;;;;;-144.05;80.76;56969.91;5092201;28;20099;-81
2024/04/03 07:38:49;;;;;;;4.40;1.80;;;;;;;-144.05;80.75;56961.41;5092379;28;20334;-78
2024/04/03 07:41:33;;;;;;;5.13;1.40;;;13.80;99.90;;;-144.05;80.04;56950.78;5089747;28;20044;-81
2024/04/03 07:44:00;;;;;;;5.13;1.33;;;;;;;-144.05;79.57;56933.78;5089428;28;20053;-81
2024/04/03 07:46:27;;;;;;;5.93;1.52;;;7.40;99.90;;;-144.05;80.26;56967.78;5090844;28;20028;-80
2024/04/03 07:48:52;;;;;;;4.72;1.30;;;13.90;99.90;;;-144.05;80.81;56976.28;5077871;28;20031;-80
2024/04/03 07:51:19;;;;;;;5.97;1.25;;;;;;;-144.05;80.81;56959.28;5097352;28;20025;-79
2024/04/03 07:53:45;;;;;;;5.70;1.52;;;13.90;99.90;;;-144.05;81.11;56957.16;5087661;28;20034;-81
2024/04/03 07:56:14;;;;;;;5.45;1.38;;;;;;;-144.05;81.97;56946.53;5086674;28;20114;-80
2024/04/03 07:58:41;;;;;;;3.95;1.25;;;10.80;99.90;;;-144.05;81.02;56976.28;5090095;28;20112;-81
2024/04/03 08:01:08;;;;;;;4.28;1.00;;;14.40;99.90;;;-144.05;80.00;56959.28;5074258;28;20025;-79
2024/04/03 08:03:34;;;;;;;6.05;1.45;;;7.40;99.90;;;-144.05;79.87;56940.16;5071492;28;20023;-81
2024/04/03 08:06:02;;;;;;;4.32;1.20;;;10.90;99.90;;;-144.05;80.39;56972.03;5085914;28;20020;-80
2024/04/03 08:08:28;;;;;;;3.95;1.40;;;;;;;-144.05;80.19;56980.53;5076909;28;20020;-79
2024/04/03 08:11:04;;;;;;;3.70;1.27;;;7.60;99.90;;;-144.05;80.15;56955.03;5081106;28;20409;-82
2024/04/03 08:13:30;;;;;;;;;;;10.70;99.90;;;-144.05;80.57;56963.53;5065416;28;20024;-82
2024/04/03 08:16:06;;;;;;;4.13;1.40;;;8.00;99.90;;;-144.05;81.14;56965.66;5086483;28;19908;-81
2024/04/03 08:18:33;;;;;;;6.53;1.40;;;14.30;99.90;;;-144.05;81.46;56982.66;5071475;28;20389;-80
2024/04/03 08:21:11;;;;;;;6.85;1.38;;;10.70;99.90;;;-144.05;81.33;56972.03;5086290;28;20024;-81
2024/04/03 08:23:38;;;;;;;4.97;1.52;;;;;;;-144.05;80.35;56955.03;5083988;28;20024;-83
2024/04/03 08:26:09;;;;;;;3.63;1.40;;;7.40;99.90;;;-144.05;80.04;56969.91;5079440;28;20048;-77
2024/04/03 08:28:42;;;;;;;8.48;1.95;;;7.60;99.90;;;-144.05;80.22;56965.66;5069892;28;20062;-79
2024/04/03 08:31:16;;;;;;;7.90;1.40;;;13.90;99.90;;;-144.05;79.85;56976.28;5084962;28;20407;-79
2024/04/03 08:33:43;;;;;;;5.82;1.58;;;8.00;99.90;;;-144.05;80.11;56978.41;5082594;28;20501;-82
2024/04/03 08:36:10;;;;;;;3.03;0.90;;;8.30;99.90;;;-144.05;79.80;56972.03;5085447;28;20586;-80
2024/04/03 08:38:37;;;;;;;5.15;1.27;;;8.10;99.90;;;-144.05;79.16;56955.03;5088224;28;20095;-79
2024/04/03 08:41:04;;;;;;;3.85;1.63;;;14.00;99.90;;;-144.05;78.62;56963.53;5085021;28;20102;-80
2024/04/03 08:43:31;;;;;;;4.57;1.15;;;;;;;-144.05;79.75;56946.53;5078304;28;20032;-79
2024/04/03 08:45:58;;;;;;;1.90;0.95;;;13.90;99.90;;;-144.05;79.55;56955.03;5067994;28;20111;-81
2024/04/03 08:48:25;;;;;;;5.90;1.13;;;;;;;-144.05;79.18;56982.66;5083538;28;20025;-79
2024/04/03 08:50:55;;;;;;;2.90;1.08;;;14.30;99.90;;;-144.05;79.39;56963.53;5077798;28;20024;-81
2024/04/03 08:53:24;;;;;;;2.80;1.48;;;14.10;99.90;;;-144.05;79.08;56942.28;5085889;28;20037;-82
2024/04/03 08:55:54;;;;;;;1.92;1.02;;;11.10;99.90;;;-144.05;79.97;56952.91;5091156;28;20055;-81
2024/04/03 08:58:21;;;;;;;3.47;1.05;;;11.00;99.90;;;-144.05;79.84;56980.53;5098678;28;20093;-77
2024/04/03 09:00:50;;;;;;;5.35;1.77;;;11.00;99.90;;;-144.05;80.07;56961.41;5083093;28;20431;-79
2024/04/03 09:03:16;;;;;;;4.00;1.20;;;8.40;99.90;;;-144.05;78.96;56952.91;5087002;28;20162;-80
2024/04/03 09:05:43;;;;;;;2.70;0.75;;;;;;;-144.05;78.18;56980.53;5066973;28;20461;-80
2024/04/03 09:08:10;;;;;;;4.78;1.80;;;11.40;99.90;;;-144.05;77.40;56961.41;5088197;28;20374;-80
2024/04/03 09:10:49;;;;;;;6.20;1.23;;;13.90;99.90;;;-144.05;77.34;56969.91;5091670;28;20106;-79
2024/04/03 09:13:17;;;;;;;3.88;1.05;;;;;;;-144.05;78.13;56972.03;5072095;28;20043;-79
2024/04/03 09:15:43;;;;;;;3.80;1.08;;;8.50;99.90;;;-144.05;77.63;56967.78;5070463;28;20092;-82
2024/04/03 09:18:10;;;;;;;2.88;0.77;;;8.70;99.90;;;-144.05;77.65;56976.28;5066736;28;20116;-79
2024/04/03 09:20:41;;;;;;;2.70;1.10;;;8.30;99.90;;;-144.05;77.14;56955.03;5087356;28;20035;-79
2024/04/03 09:23:09;;;;;;;3.58;0.82;;;7.90;99.90;;;-144.05;76.82;56989.00;5083948;28;20032;-77
2024/04/03 09:25:38;;;;;;;4.68;1.20;;;14.10;99.90;;;-144.05;77.13;56957.16;5081914;28;20031;-80
2024/04/03 09:28:10;;;;;;;3.03;1.10;;;13.90;99.90;;;-144.05;77.11;56969.91;5085972;28;20020;-82
2024/04/03 09:30:47;;;;;;;3.25;1.10;;;8.00;99.90;;;-144.05;76.70;56993.25;5065415;28;20035;-81
2024/04/03 09:33:14;;;;;;;2.45;0.80;;;;;;;-144.05;75.83;56972.03;5062195;28;20140;-81
2024/04/03 09:35:43;;;;;;;5.13;1.02;;;14.10;99.90;;;-144.05;75.57;56963.53;5087914;28;20024;-82
2024/04/03 09:38:10;;;;;;;1.80;0.90;;;14.40;99.90;;;-144.05;74.12;56959.28;5085512;28;20021;-81
2024/04/03 09:40:40;;;;;;;2.85;0.95;;;12.00;99.90;;;-144.05;73.28;56948.66;5078047;28;20367;-80
2024/04/03 09:43:23;;;;;;;2.85;0.93;;;14.30;99.90;;;-144.05;73.46;56978.41;5068393;28;20058;-78
2024/04/03 09:45:53;;;;;;;3.67;0.70;;;9.40;99.90;;;-144.05;74.09;56965.66;5086837;28;20516;-81
2024/04/03 09:48:26;;;;;;;5.45;0.82;;;14.10;99.90;;;-144.05;73.00;56944.41;5089067;28;20245;-82
2024/04/03 09:50:54;;;;;;;3.08;1.17;;;9.30;99.90;;;-144.05;72.84;56982.66;5073716;28;20028;-81
2024/04/03 09:53:24;;;;;;;4.00;1.50;;;12.10;99.90;;;-144.05;71.67;56963.53;5087523;28;20020;-81
2024/04/03 09:55:52;;;;;;;2.00;0.82;;;14.60;99.90;;;-144.05;72.31;56989.00;5075556;28;20401;-82
2024/04/03 09:58:21;;;;;;;2.05;0.60;;;10.10;99.90;;;-144.05;72.02;56918.94;5068077;28;20021;-83
2024/04/03 10:01:05;;;;;;;2.85;0.68;;;9.90;99.90;;;-144.05;71.31;56965.66;5088508;28;20027;-81
2024/04/03 10:03:34;;;;;;;1.08;0.50;;;9.30;99.90;;;-144.05;72.49;56963.53;5087863;28;20396;-81
2024/04/03 10:06:16;;;;;;;4.22;0.82;;;9.60;99.90;;;-144.05;71.29;56963.53;5085196;28;20070;-80
2024/04/03 10:08:48;;;;;;;1.25;0.50;;;9.00;99.90;;;-144.05;70.91;56963.53;5068885;28;20476;-80
2024/04/03 10:11:16;;;;;;;3.28;0.90;;;8.90;99.90;;;-144.05;70.79;56935.91;5067213;28;20029;-79
2024/04/03 10:13:47;;;;;;;2.55;0.60;;;12.20;99.90;;;-144.05;71.91;56961.41;5091121;28;20028;-81
2024/04/03 10:16:15;;;;;;;1.33;0.70;;;14.20;99.90;;;-144.05;71.77;56931.66;5066666;28;20114;-81
2024/04/03 10:18:50;;;;;;;0.70;0.60;;;9.40;99.90;;;-144.05;73.23;56967.78;5068935;28;20639;-81
2024/04/03 10:21:19;;;;;;;1.55;1.08;;;9.50;99.90;;;-144.05;75.18;56959.28;5067639;28;20067;-81
2024/04/03 10:23:50;;;;;;;2.05;0.70;;;13.90;99.90;;;-144.05;75.58;56972.03;5091047;28;20032;-80
2024/04/03 10:26:20;;;;;;;3.05;0.73;;;14.10;99.90;;;-144.05;75.63;56955.03;5084987;28;20036;-82
2024/04/03 10:28:47;;;;;;;0.65;0.45;;;9.10;99.90;;;-144.05;76.54;56969.91;5092906;28;20020;-81
2024/04/03 10:31:21;;;;;;;4.80;0.85;;;9.50;99.90;;;-144.05;74.45;56976.28;5078823;28;20027;-79
2024/04/03 10:33:51;;;;;;;3.45;0.90;;;9.20;99.90;;;-144.05;74.76;56967.78;5072926;28;20028;-81